createdAt,value
2023-02-05T00:03:02.604Z,3.42
2023-02-05T00:08:04.549Z,2.42
2023-02-05T00:13:08.980Z,5.13
2023-02-05T00:18:10.723Z,2.35
2023-02-05T00:23:12.451Z,3.30
2023-02-05T00:28:14.183Z,3.78
2023-02-05T00:33:15.974Z,3.15
2023-02-05T00:38:17.808Z,2.05
2023-02-05T00:43:19.522Z,2.67
2023-02-05T00:48:24.941Z,4.90
2023-02-05T00:53:27.132Z,2.15
2023-02-05T00:58:28.992Z,2.50
2023-02-05T01:03:30.873Z,2.92
2023-02-05T01:08:32.988Z,2.30
2023-02-05T01:13:34.792Z,3.78
2023-02-05T01:18:36.985Z,2.65
2023-02-05T01:23:38.741Z,2.70
2023-02-05T01:28:40.537Z,3.28
2023-02-05T01:33:42.308Z,3.15
2023-02-05T01:38:44.076Z,3.70
2023-02-05T01:44:04.860Z,1.80
2023-02-05T01:49:09.448Z,4.80
2023-02-05T01:54:11.809Z,2.75
2023-02-05T01:59:24.436Z,2.60
2023-02-05T02:04:52.309Z,2.58
2023-02-05T02:09:55.264Z,1.80
2023-02-05T02:15:04.087Z,4.15
2023-02-05T02:20:18.816Z,2.63
2023-02-05T02:26:08.142Z,4.75
2023-02-05T02:31:16.946Z,2.50
2023-02-05T02:36:27.703Z,3.53
2023-02-05T02:41:38.242Z,4.03
2023-02-05T02:46:53.783Z,3.10
2023-02-05T02:51:57.874Z,3.17
2023-02-05T02:57:03.202Z,2.55
2023-02-05T03:02:09.363Z,3.72
2023-02-05T03:07:17.271Z,4.53
2023-02-05T03:12:20.198Z,5.10
2023-02-05T03:17:22.879Z,2.85
2023-02-05T03:22:24.664Z,4.30
2023-02-05T03:27:26.503Z,2.95
2023-02-05T03:32:36.669Z,3.40
2023-02-05T03:38:03.504Z,3.95
2023-02-05T03:43:39.993Z,3.83
2023-02-05T03:49:13.486Z,3.38
2023-02-05T03:54:21.578Z,8.93
2023-02-05T03:59:24.718Z,3.28
2023-02-05T04:04:26.689Z,6.07
2023-02-05T04:09:28.549Z,4.82
2023-02-05T04:14:30.364Z,2.30
2023-02-05T04:19:32.240Z,3.53
2023-02-05T04:24:34.040Z,2.72
2023-02-05T04:29:35.916Z,5.07
2023-02-05T04:34:37.668Z,4.50
2023-02-05T04:39:39.538Z,2.63
2023-02-05T04:44:41.354Z,3.55
2023-02-05T04:49:43.058Z,4.38
2023-02-05T04:54:45.084Z,4.47
2023-02-05T04:59:46.943Z,4.28
2023-02-05T05:04:48.955Z,4.43
2023-02-05T05:09:52.401Z,5.18
2023-02-05T05:14:54.367Z,6.03
2023-02-05T05:19:56.260Z,3.90
2023-02-05T05:24:58.201Z,3.65
2023-02-05T05:30:00.065Z,2.53
2023-02-05T05:35:01.909Z,5.75
2023-02-05T05:40:22.207Z,3.08
2023-02-05T05:45:24.393Z,4.32
2023-02-05T05:50:26.152Z,3.03
2023-02-05T05:55:28.041Z,3.65
2023-02-05T06:00:29.956Z,3.22
2023-02-05T06:05:33.327Z,3.35
2023-02-05T06:10:35.460Z,5.60
2023-02-05T06:15:37.663Z,2.95
2023-02-05T06:20:39.844Z,3.15
2023-02-05T06:25:42.038Z,3.65
2023-02-05T06:30:44.035Z,2.88
2023-02-05T06:35:47.021Z,3.28
2023-02-05T06:40:49.667Z,4.82
2023-02-05T06:45:51.606Z,6.18
2023-02-05T06:50:53.435Z,5.30
2023-02-05T06:55:58.872Z,3.60
2023-02-05T07:01:02.069Z,6.20
2023-02-05T07:06:05.885Z,2.80
2023-02-05T07:11:07.782Z,3.40
2023-02-05T07:16:09.781Z,4.80
2023-02-05T07:21:16.286Z,3.88
2023-02-05T07:26:18.614Z,3.88
2023-02-05T07:31:20.776Z,3.38
2023-02-05T07:36:22.593Z,4.80
2023-02-05T07:41:26.764Z,3.78
2023-02-05T07:46:28.963Z,4.07
2023-02-05T07:51:30.780Z,5.85
2023-02-05T07:56:32.566Z,5.90
2023-02-05T08:01:35.007Z,3.92
2023-02-05T08:06:36.848Z,4.05
2023-02-05T08:11:38.655Z,4.82
2023-02-05T08:16:40.773Z,5.20
2023-02-05T08:21:43.399Z,6.22
2023-02-05T08:26:45.582Z,6.00
2023-02-05T08:31:47.363Z,5.07
2023-02-05T08:36:49.180Z,5.22
2023-02-05T08:41:50.950Z,3.47
2023-02-05T08:46:52.806Z,5.38
2023-02-05T08:51:54.689Z,9.68
2023-02-05T08:56:56.381Z,8.23
2023-02-05T09:01:58.103Z,5.72
2023-02-05T09:06:59.860Z,5.43
2023-02-05T09:12:01.621Z,7.75
2023-02-05T09:17:04.504Z,7.93
2023-02-05T09:22:07.166Z,7.70
2023-02-05T09:27:08.909Z,7.53
2023-02-05T09:32:10.642Z,6.57
2023-02-05T09:37:12.378Z,8.27
2023-02-05T09:42:22.956Z,9.77
2023-02-05T09:47:50.278Z,8.32
2023-02-05T09:52:54.845Z,9.40
2023-02-05T09:58:01.095Z,8.77
2023-02-05T10:03:29.989Z,8.25
2023-02-05T10:08:38.900Z,7.82
2023-02-05T10:13:45.044Z,9.55
2023-02-05T10:19:05.657Z,11.80
2023-02-05T10:24:27.450Z,7.60
2023-02-05T10:30:02.737Z,8.60
2023-02-05T10:35:44.703Z,9.25
2023-02-05T10:40:46.824Z,8.13
2023-02-05T10:45:49.822Z,8.75
2023-02-05T10:51:07.185Z,9.73
2023-02-05T10:56:14.611Z,7.95
2023-02-05T11:01:23.973Z,8.05
2023-02-05T11:06:27.359Z,6.55
2023-02-05T11:11:31.413Z,6.60
2023-02-05T11:16:43.189Z,7.97
2023-02-05T11:21:51.313Z,7.63
2023-02-05T11:27:13.531Z,5.90
2023-02-05T11:32:31.194Z,6.40
2023-02-05T11:37:32.934Z,4.57
2023-02-05T11:42:35.773Z,4.72
2023-02-05T11:47:40.614Z,5.10
2023-02-05T11:52:42.532Z,5.13
2023-02-05T11:57:44.311Z,5.32
2023-02-05T12:02:51.423Z,4.07
2023-02-05T12:08:12.358Z,5.75
2023-02-05T12:13:39.613Z,11.98
2023-02-05T12:19:03.532Z,5.45
2023-02-05T12:24:27.255Z,4.15
2023-02-05T12:29:57.215Z,6.15
2023-02-05T12:35:15.170Z,3.90
2023-02-05T12:40:25.979Z,3.70
2023-02-05T12:45:40.119Z,4.13
2023-02-05T12:50:54.334Z,2.95
2023-02-05T12:56:08.510Z,4.75
2023-02-05T13:01:24.145Z,4.43
2023-02-05T13:06:46.621Z,4.57
2023-02-05T13:11:57.144Z,5.25
2023-02-05T13:17:34.314Z,4.78
2023-02-05T13:22:58.951Z,4.82
2023-02-05T13:28:28.770Z,3.55
2023-02-05T13:33:30.621Z,4.68
2023-02-05T13:38:50.493Z,3.15
2023-02-05T13:44:26.273Z,3.78
2023-02-05T13:49:49.391Z,4.75
2023-02-05T13:55:15.235Z,5.32
2023-02-05T14:00:17.669Z,5.75
2023-02-05T14:05:42.778Z,4.13
2023-02-05T14:10:45.465Z,5.13
2023-02-05T14:15:47.742Z,6.18
2023-02-05T14:20:49.536Z,6.45
2023-02-05T14:26:03.548Z,4.13
2023-02-05T14:31:07.318Z,6.13
2023-02-05T14:36:21.874Z,6.45
2023-02-05T14:41:27.656Z,7.03
2023-02-05T14:46:39.847Z,4.57
2023-02-05T14:51:48.677Z,4.55
2023-02-05T14:56:54.021Z,4.07
2023-02-05T15:01:57.053Z,4.85
2023-02-05T15:07:07.854Z,4.82
2023-02-05T15:12:44.475Z,3.95
2023-02-05T15:17:51.844Z,4.70
2023-02-05T15:23:18.213Z,4.70
2023-02-05T15:28:36.855Z,4.28
2023-02-05T15:33:58.815Z,8.18
2023-02-05T15:39:20.022Z,5.90
2023-02-05T15:44:27.793Z,6.25
2023-02-05T15:49:40.349Z,5.78
2023-02-05T15:54:43.202Z,4.82
2023-02-05T15:59:45.012Z,4.40
2023-02-05T16:04:58.257Z,6.85
2023-02-05T16:10:01.486Z,9.18
2023-02-05T16:15:07.466Z,8.65
2023-02-05T16:20:21.541Z,6.70
2023-02-05T16:25:28.873Z,9.32
2023-02-05T16:30:42.804Z,9.00
2023-02-05T16:35:48.000Z,8.45
2023-02-05T16:40:57.081Z,10.48
2023-02-05T16:46:08.163Z,9.60
2023-02-05T16:51:33.527Z,10.43
2023-02-05T16:56:39.065Z,8.90
2023-02-05T17:01:43.884Z,11.40
2023-02-05T17:06:45.711Z,11.45
2023-02-05T17:11:47.521Z,10.98
2023-02-05T17:17:03.179Z,11.25
2023-02-05T17:22:13.805Z,9.98
2023-02-05T17:27:29.484Z,9.88
2023-02-05T17:32:32.537Z,12.85
2023-02-05T17:37:34.793Z,10.73
2023-02-05T17:42:36.547Z,11.57
2023-02-05T17:47:38.321Z,10.25
2023-02-05T17:52:40.285Z,10.48
2023-02-05T17:57:43.534Z,11.82
2023-02-05T18:02:45.249Z,9.25
2023-02-05T18:07:53.292Z,7.35
2023-02-05T18:12:56.051Z,7.05
2023-02-05T18:17:57.765Z,8.32
2023-02-05T18:22:59.892Z,8.50
2023-02-05T18:28:01.687Z,9.45
2023-02-05T18:33:03.443Z,5.97
2023-02-05T18:38:05.138Z,10.20
2023-02-05T18:43:06.869Z,8.93
2023-02-05T18:48:08.590Z,7.70
2023-02-05T18:53:10.300Z,12.25
2023-02-05T18:58:12.004Z,14.30
2023-02-05T19:03:13.758Z,10.82
2023-02-05T19:08:15.634Z,13.45
2023-02-05T19:13:18.004Z,18.45
2023-02-05T19:18:19.669Z,14.15
2023-02-05T19:23:21.843Z,25.55
2023-02-05T19:28:23.560Z,30.60
2023-02-05T19:33:25.291Z,20.77
2023-02-05T19:38:27.430Z,16.55
2023-02-05T19:43:29.191Z,12.23
2023-02-05T19:48:31.438Z,14.82
2023-02-05T19:53:34.328Z,12.75
2023-02-05T19:58:41.242Z,14.48
2023-02-05T20:03:44.956Z,16.63
2023-02-05T20:08:47.275Z,13.63
2023-02-05T20:13:49.164Z,13.23
2023-02-05T20:18:56.309Z,15.88
2023-02-05T20:23:58.059Z,17.03
2023-02-05T20:29:18.690Z,17.20
2023-02-05T20:34:26.102Z,16.00
2023-02-05T20:39:29.255Z,13.83
2023-02-05T20:44:33.661Z,11.80
2023-02-05T20:49:37.168Z,11.15
2023-02-05T20:54:39.321Z,9.90
2023-02-05T20:59:41.137Z,12.30
2023-02-05T21:04:42.875Z,12.20
2023-02-05T21:09:44.640Z,13.77
2023-02-05T21:14:46.415Z,12.25
2023-02-05T21:19:48.113Z,17.40
2023-02-05T21:24:49.798Z,14.27
2023-02-05T21:29:51.769Z,16.35
2023-02-05T21:34:53.679Z,17.33
2023-02-05T21:40:08.480Z,15.47
2023-02-05T21:45:10.834Z,13.47
2023-02-05T21:50:12.673Z,14.80
2023-02-05T21:55:14.546Z,15.73
2023-02-05T22:00:16.925Z,15.68
2023-02-05T22:05:18.653Z,13.68
2023-02-05T22:10:20.407Z,17.00
2023-02-05T22:15:22.151Z,13.77
2023-02-05T22:20:23.880Z,13.43
2023-02-05T22:25:25.604Z,11.63
2023-02-05T22:30:27.395Z,13.48
2023-02-05T22:35:29.238Z,16.35
2023-02-05T22:40:31.037Z,13.57
2023-02-05T22:45:32.968Z,11.67
2023-02-05T22:50:41.545Z,13.40
2023-02-05T22:55:43.451Z,14.25
2023-02-05T23:00:45.311Z,13.97
2023-02-05T23:05:47.097Z,12.43
2023-02-05T23:10:48.845Z,14.73
2023-02-05T23:15:50.543Z,17.52
2023-02-05T23:20:52.194Z,14.80
2023-02-05T23:25:55.049Z,15.87
2023-02-05T23:30:56.826Z,13.70
2023-02-05T23:35:59.189Z,13.87
2023-02-05T23:41:01.240Z,18.40
2023-02-05T23:46:04.157Z,12.73
2023-02-05T23:51:05.952Z,16.57
2023-02-05T23:56:07.709Z,13.53
